Time;durP1;ratioP1;P1;durP2;ratioP2;P2;SDS_P1;SDS_P2;PMS_P1;PMS_P2;Temp;Humidity;BMP_temperature;BMP_pressure;BME280_temperature;BME280_humidity;BME280_pressure;Samples;Min_cycle;Max_cycle;Signal;HPM_P1;HPM_P2
2024/03/06 00:03:00;;;;;;;;;;;7.30;99.90;;;;;;6703560;88;20055;-75
2024/03/06 00:13:00;;;;;;;;;;;7.30;99.90;;;;;;6705457;88;20566;-76
2024/03/06 00:23:01;;;;;;;;;;;7.20;99.90;;;;;;6705425;88;20068;-76
2024/03/06 00:33:01;;;;;;;;;;;7.00;99.90;;;;;;6703240;88;20055;-76
2024/03/06 00:43:02;;;;;;;;;;;7.20;99.90;;;;;;6705976;88;20078;-76
2024/03/06 00:53:04;;;;;;;;;;;7.10;99.90;;;;;;6702050;88;20116;-76
2024/03/06 01:03:04;;;;;;;;;;;7.10;99.90;;;;;;6704093;88;20510;-76
2024/03/06 01:13:05;;;;;;;;;;;7.10;99.90;;;;;;6697702;88;20095;-76
2024/03/06 01:23:06;;;;;;;;;;;7.00;99.90;;;;;;6703218;88;20640;-76
2024/03/06 01:33:06;;;;;;;;;;;6.80;99.90;;;;;;6698428;88;20270;-76
2024/03/06 01:43:16;;;;;;;;;;;6.70;99.90;;;;;;6703402;88;20110;-76
2024/03/06 01:53:18;;;;;;;;;;;6.50;99.90;;;;;;6709750;88;20051;-76
2024/03/06 02:03:19;;;;;;;;;;;6.30;99.90;;;;;;6702363;88;20106;-75
2024/03/06 02:13:20;;;;;;;;;;;6.20;99.90;;;;;;6704800;88;20069;-75
2024/03/06 02:23:22;;;;;;;;;;;6.20;99.90;;;;;;6698057;88;20070;-76
2024/03/06 02:33:22;;;;;;;;;;;6.10;99.90;;;;;;6705814;88;20167;-75
2024/03/06 02:43:22;;;;;;;;;;;6.20;99.90;;;;;;6704453;88;20116;-76
2024/03/06 02:53:23;;;;;;;;;;;6.00;99.90;;;;;;6703820;88;20133;-76
2024/03/06 03:03:24;;;;;;;;;;;5.80;99.90;;;;;;6702938;88;20083;-75
2024/03/06 03:13:25;;;;;;;;;;;5.70;99.90;;;;;;6700903;88;20069;-74
2024/03/06 03:23:25;;;;;;;;;;;5.60;99.90;;;;;;6698778;88;20087;-74
2024/03/06 03:33:26;;;;;;;;;;;5.40;99.90;;;;;;6702334;88;20052;-75
2024/03/06 03:43:26;;;;;;;;;;;5.20;99.90;;;;;;6704889;88;20210;-75
2024/03/06 03:53:27;;;;;;;;;;;5.00;99.90;;;;;;6702454;88;20059;-73
2024/03/06 04:03:27;;;;;;;;;;;4.80;99.90;;;;;;6705836;88;20514;-75
2024/03/06 04:13:28;;;;;;;;;;;4.80;99.90;;;;;;6709912;88;20077;-75
2024/03/06 04:23:28;;;;;;;;;;;4.80;99.90;;;;;;6704659;88;20075;-75
2024/03/06 04:33:28;;;;;;;;;;;4.70;99.90;;;;;;6707962;88;20054;-75
2024/03/06 04:43:30;;;;;;;;;;;4.60;99.90;;;;;;6708983;88;20081;-75
2024/03/06 04:53:30;;;;;;;;;;;4.40;99.90;;;;;;6700719;88;20065;-74
2024/03/06 05:03:30;;;;;;;;;;;4.00;99.90;;;;;;6703954;88;20111;-77
2024/03/06 05:13:31;;;;;;;;;;;3.70;99.90;;;;;;6707904;88;20083;-74
2024/03/06 05:23:31;;;;;;;;;;;3.60;99.90;;;;;;6706307;88;20596;-75
2024/03/06 05:33:32;;;;;;;;;;;3.60;99.90;;;;;;6707305;88;20039;-75
2024/03/06 05:43:33;;;;;;;;;;;3.70;99.90;;;;;;6706287;88;20117;-75
2024/03/06 05:53:37;;;;;;;;;;;3.50;99.90;;;;;;6712258;88;20092;-75
2024/03/06 06:03:38;;;;;;;;;;;3.40;99.90;;;;;;6700584;88;20072;-75
2024/03/06 06:13:41;;;;;;;;;;;3.40;99.90;;;;;;6707406;88;20518;-74
2024/03/06 06:23:42;;;;;;;;;;;3.20;99.90;;;;;;6703744;88;20752;-74
2024/03/06 06:33:45;;;;;;;;;;;3.30;99.90;;;;;;6703995;88;20206;-75
2024/03/06 06:43:46;;;;;;;;;;;3.10;99.90;;;;;;6707562;88;20067;-73
2024/03/06 06:53:46;;;;;;;;;;;3.20;99.90;;;;;;6706956;88;20103;-75
2024/03/06 07:03:47;;;;;;;;;;;3.40;99.90;;;;;;6715056;88;20108;-75
2024/03/06 07:13:47;;;;;;;;;;;3.50;99.90;;;;;;6710323;88;20100;-75
2024/03/06 07:23:47;;;;;;;;;;;3.70;99.90;;;;;;6706882;88;20092;-75
2024/03/06 07:33:48;;;;;;;;;;;3.70;99.90;;;;;;6705519;88;20095;-76
2024/03/06 07:43:48;;;;;;;;;;;4.00;99.90;;;;;;6707528;88;20640;-75
2024/03/06 07:53:50;;;;;;;;;;;4.20;99.90;;;;;;6707481;88;20149;-74
2024/03/06 08:03:50;;;;;;;;;;;4.40;99.90;;;;;;6707225;88;20512;-75
2024/03/06 08:13:56;;;;;;;;;;;5.30;99.90;;;;;;6705038;88;20082;-75
2024/03/06 08:23:57;;;;;;;;;;;6.90;99.90;;;;;;6702217;88;20184;-75
2024/03/06 08:33:57;;;;;;;;;;;8.20;99.90;;;;;;6703986;88;20080;-75
2024/03/06 08:43:58;;;;;;;;;;;8.20;99.90;;;;;;6705550;88;20055;-75
2024/03/06 08:53:58;;;;;;;;;;;9.00;99.90;;;;;;6703589;88;20063;-76
2024/03/06 09:03:59;;;;;;;;;;;9.40;99.90;;;;;;6706621;88;20589;-75
2024/03/06 09:13:59;;;;;;;;;;;9.70;99.90;;;;;;6708150;88;20047;-76
2024/03/06 09:23:59;;;;;;;;;;;9.90;99.90;;;;;;6700189;88;20570;-75
2024/03/06 09:34:00;;;;;;;;;;;10.80;99.90;;;;;;6709500;88;20060;-76
2024/03/06 09:44:00;;;;;;;;;;;11.80;99.90;;;;;;6700621;88;20081;-76
2024/03/06 09:54:02;;;;;;;;;;;13.80;99.90;;;;;;6700825;88;20069;-76
2024/03/06 10:04:17;;;;;;;;;;;14.30;99.90;;;;;;6701376;88;20095;-76
2024/03/06 10:14:17;;;;;;;;;;;14.30;99.90;;;;;;6702717;88;20576;-77
2024/03/06 10:24:23;;;;;;;;;;;14.10;99.90;;;;;;6698036;88;20063;-75
2024/03/06 10:34:25;;;;;;;;;;;15.50;99.90;;;;;;6701408;88;20113;-75
2024/03/06 10:44:26;;;;;;;;;;;16.60;99.90;;;;;;6699363;88;20623;-75
2024/03/06 10:54:27;;;;;;;;;;;17.40;99.90;;;;;;6699831;88;20053;-75
2024/03/06 11:14:31;;;;;;;;;;;18.60;99.30;;;;;;6727249;88;20094;-79
2024/03/06 11:24:32;;;;;;;;;;;19.40;99.90;;;;;;6724855;88;20585;-79
2024/03/06 11:34:33;;;;;;;;;;;19.00;99.70;;;;;;6722237;88;20610;-79
2024/03/06 11:44:34;;;;;;;;;;;18.20;99.90;;;;;;6721510;88;20524;-80
2024/03/06 11:54:35;;;;;;;;;;;18.80;98.20;;;;;;6723067;88;20066;-79
2024/03/06 12:04:39;;;;;;;;;;;18.10;99.40;;;;;;6723658;88;20057;-79
2024/03/06 12:14:39;;;;;;;;;;;18.20;99.30;;;;;;6724593;88;20688;-79
2024/03/06 12:24:39;;;;;;;;;;;19.70;98.40;;;;;;6726132;88;20059;-80
2024/03/06 12:34:40;;;;;;;;;;;19.60;96.10;;;;;;6725858;88;20092;-80
2024/03/06 12:44:40;;;;;;;;;;;19.20;96.30;;;;;;6742040;88;20193;-80
2024/03/06 12:54:41;;;;;;;;;;;20.60;93.80;;;;;;6730161;88;20628;-82
2024/03/06 13:04:41;;;;;;;;;;;22.90;92.20;;;;;;6724406;88;20459;-79
2024/03/06 13:14:42;;;;;;;;;;;22.70;92.00;;;;;;6723491;88;20062;-79
2024/03/06 13:24:42;;;;;;;;;;;23.50;89.20;;;;;;6723093;88;20485;-79
2024/03/06 13:34:43;;;;;;;;;;;22.40;90.10;;;;;;6723179;88;20075;-78
2024/03/06 13:44:44;;;;;;;;;;;22.50;90.20;;;;;;6724046;88;20117;-79
2024/03/06 13:54:45;;;;;;;;;;;22.60;89.30;;;;;;6732858;88;20525;-79
2024/03/06 14:04:45;;;;;;;;;;;21.00;87.50;;;;;;6725237;88;20079;-79
2024/03/06 14:14:46;;;;;;;;;;;21.20;88.70;;;;;;6723686;88;20071;-78
2024/03/06 14:24:46;;;;;;;;;;;21.50;87.90;;;;;;6719395;88;20084;-80
2024/03/06 14:34:47;;;;;;;;;;;22.10;88.20;;;;;;6718468;88;20062;-79
2024/03/06 14:44:48;;;;;;;;;;;20.40;91.10;;;;;;6715560;88;20070;-77
2024/03/06 14:54:49;;;;;;;;;;;19.50;91.30;;;;;;6711983;88;20600;-78
2024/03/06 15:04:49;;;;;;;;;;;19.30;90.70;;;;;;6709721;88;20196;-78
2024/03/06 15:14:50;;;;;;;;;;;19.00;91.70;;;;;;6713977;88;20138;-78
2024/03/06 15:24:50;;;;;;;;;;;17.80;91.60;;;;;;6716624;88;20608;-77
2024/03/06 15:34:53;;;;;;;;;;;16.80;93.40;;;;;;6715885;88;20053;-78
2024/03/06 15:44:53;;;;;;;;;;;15.80;93.70;;;;;;6716544;88;20206;-76
2024/03/06 15:54:54;;;;;;;;;;;15.20;94.80;;;;;;6718230;88;20074;-76
2024/03/06 16:04:54;;;;;;;;;;;14.80;95.10;;;;;;6718566;88;20076;-77
2024/03/06 16:14:55;;;;;;;;;;;14.60;95.40;;;;;;6718204;88;20058;-78
2024/03/06 16:24:55;;;;;;;;;;;14.30;95.60;;;;;;6720384;88;20176;-76
2024/03/06 16:34:56;;;;;;;;;;;14.10;95.10;;;;;;6719169;88;20508;-78
2024/03/06 16:44:56;;;;;;;;;;;14.00;96.20;;;;;;6719376;88;20128;-77
2024/03/06 16:54:56;;;;;;;;;;;13.50;97.40;;;;;;6717941;88;20059;-77
2024/03/06 17:04:57;;;;;;;;;;;13.40;98.20;;;;;;6718020;88;20523;-77
2024/03/06 17:14:57;;;;;;;;;;;13.00;99.90;;;;;;6718632;88;20181;-77
2024/03/06 17:24:58;;;;;;;;;;;12.70;99.90;;;;;;6718124;88;20252;-79
2024/03/06 17:34:59;;;;;;;;;;;12.30;99.90;;;;;;6722975;88;20189;-75
2024/03/06 17:45:00;;;;;;;;;;;12.10;99.90;;;;;;6718739;88;20210;-79
2024/03/06 17:55:01;;;;;;;;;;;11.70;99.90;;;;;;6719324;88;20077;-78
2024/03/06 18:05:03;;;;;;;;;;;11.50;99.90;;;;;;6720702;88;20081;-74
2024/03/06 18:15:04;;;;;;;;;;;11.30;99.90;;;;;;6717551;88;20529;-77
2024/03/06 18:25:06;;;;;;;;;;;11.20;99.90;;;;;;6726760;77;20175;-77
2024/03/06 18:35:06;;;;;;;;;;;11.00;99.90;;;;;;6711418;88;20490;-76
2024/03/06 18:45:07;;;;;;;;;;;10.90;99.90;;;;;;6710057;88;20092;-77
2024/03/06 18:55:10;;;;;;;;;;;10.80;99.90;;;;;;6703679;88;20063;-76
2024/03/06 19:05:10;;;;;;;;;;;10.80;99.90;;;;;;6706542;88;20101;-76
2024/03/06 19:15:11;;;;;;;;;;;10.70;99.90;;;;;;6705596;88;20056;-77
2024/03/06 19:25:11;;;;;;;;;;;10.70;99.90;;;;;;6713741;88;20669;-76
2024/03/06 19:35:12;;;;;;;;;;;10.70;99.90;;;;;;6708705;88;20094;-76
2024/03/06 19:45:12;;;;;;;;;;;10.60;99.90;;;;;;6702763;88;20208;-77
2024/03/06 19:55:13;;;;;;;;;;;10.50;99.90;;;;;;6700969;88;20602;-76
2024/03/06 20:05:13;;;;;;;;;;;10.40;99.90;;;;;;6705901;88;20690;-76
2024/03/06 20:15:14;;;;;;;;;;;10.30;99.90;;;;;;6706578;88;20078;-77
2024/03/06 20:25:14;;;;;;;;;;;10.10;99.90;;;;;;6701451;88;20534;-78
2024/03/06 20:35:20;;;;;;;;;;;9.80;99.90;;;;;;6701203;88;20068;-79
2024/03/06 20:45:20;;;;;;;;;;;9.60;99.90;;;;;;6712466;88;20058;-77
2024/03/06 20:55:21;;;;;;;;;;;9.20;99.90;;;;;;6708206;88;20098;-77
2024/03/06 21:05:21;;;;;;;;;;;9.10;99.90;;;;;;6707576;88;20082;-77
2024/03/06 21:15:24;;;;;;;;;;;8.90;99.90;;;;;;6706424;88;20099;-78
2024/03/06 21:25:26;;;;;;;;;;;8.80;99.90;;;;;;6702463;88;20158;-77
2024/03/06 21:35:27;;;;;;;;;;;8.50;99.90;;;;;;6707454;88;20079;-75
2024/03/06 21:45:28;;;;;;;;;;;8.40;99.90;;;;;;6707349;88;20113;-75
2024/03/06 21:55:28;;;;;;;;;;;8.40;99.90;;;;;;6706631;88;20615;-77
2024/03/06 22:05:28;;;;;;;;;;;8.30;99.90;;;;;;6702816;88;20146;-74
2024/03/06 22:15:29;;;;;;;;;;;8.20;99.90;;;;;;6698711;88;20080;-74
2024/03/06 22:25:30;;;;;;;;;;;7.90;99.90;;;;;;6696489;88;20068;-73
2024/03/06 22:35:30;;;;;;;;;;;7.60;99.90;;;;;;6698258;88;20228;-73
2024/03/06 22:45:30;;;;;;;;;;;7.40;99.90;;;;;;6696925;88;20854;-74
2024/03/06 22:55:32;;;;;;;;;;;7.20;99.90;;;;;;6699557;88;20127;-74
2024/03/06 23:05:33;;;;;;;;;;;7.00;99.90;;;;;;6710818;88;20113;-76
2024/03/06 23:15:33;;;;;;;;;;;6.90;99.90;;;;;;6717939;88;20115;-73
2024/03/06 23:25:34;;;;;;;;;;;6.80;99.90;;;;;;6705222;88;20540;-74
2024/03/06 23:35:34;;;;;;;;;;;6.50;99.90;;;;;;6705105;88;20593;-74
2024/03/06 23:45:34;;;;;;;;;;;6.30;99.90;;;;;;6704961;88;20058;-74
2024/03/06 23:55:35;;;;;;;;;;;6.20;99.90;;;;;;6695884;88;20129;-74
